Station: Lake Grace  

  Atmospheric Gas Attenuation - ITU Rec 676-11   ----------------- dB/100km -----------------
Date Time Temp RH % AH g/m3 Dew Point Wind Direction Speed kph Gust kph Barometer mB Rainfall Since 9am 24GHz 47GHz 76GHz 122GHz 134GHz 241GHz
08/05 09:20 14.7 66 8.31 8.4 24 32 1033.9 0 18.9 25.9 39.1 102.3 95.1 326.9
08/05 09:10 14.7 69 8.69 9.1 17 22 1033.8 0 19.7 26.6 40.6 106.4 100.1 344.4
08/05 09:00 13.8 72 8.58 8.8 19 30 1033.7 0 19.5 26.6 40.6 106.4 99.8 343.2
08/05 08:50 13.4 75 8.72 9.1 19 20 1033.8 0 19.8 27.0 41.4 108.5 102.2 351.6
08/05 08:40 13.3 77 8.9 9.4 20 26 1033.8 0 20.2 27.3 42.2 110.6 104.8 360.6
08/05 08:30 12.7 80 8.91 9.3 20 28 1033.6 0 20.3 27.5 42.6 111.5 105.7 363.8
08/05 08:20 12.3 82 8.9 9.3 22 28 1033.7 0 20.3 27.6 42.7 112.0 106.2 365.2
08/05 08:10 11.8 85 8.95 9.4 22 26 1033.6 0 20.4 27.9 43.2 113.3 107.5 370.0
08/05 08:00 11.4 86 8.83 9.1 20 32 1033.4 0 20.2 27.8 42.9 112.5 106.4 365.9
08/05 07:50 11.1 88 8.87 9.2 22 26 1033.5 0 20.3 27.9 43.3 113.4 107.4 369.3
08/05 07:40 10.9 90 8.95 9.3 20 26 1033.4 0 20.5 28.1 43.7 114.6 108.8 374.2
08/05 07:30 10.4 91 8.77 9 20 28 1033.1 0 20.1 28.0 43.2 113.2 106.9 367.6
08/05 07:20 10.2 93 8.85 9.1 19 28 1033.1 0 20.3 28.2 43.7 114.4 108.3 372.5
08/05 07:10 10.1 94 8.89 9.2 20 24 1033 0 20.4 28.3 43.9 115.0 109.0 375.0
08/05 07:00 9.7 95 8.76 8.9 20 28 1032.9 0 20.1 28.2 43.5 114.1 107.7 370.4
08/05 06:50 9.6 96 8.8 9 19 24 1032.8 0 20.2 28.3 43.8 114.7 108.4 372.8
08/05 06:40 9.4 96 8.69 8.8 17 22 1032.8 0 20.0 28.1 43.4 113.7 107.2 368.3
08/05 06:30 9.3 96 8.63 8.7 17 24 1032.8 0 19.9 28.1 43.2 113.2 106.4 365.8
08/05 06:20 9.3 95 8.54 8.5 15 20 1032.8 0 19.7 27.9 42.8 112.1 105.2 361.3
08/05 06:10 9.4 95 8.59 8.6 17 24 1032.6 0 19.8 28.0 43.0 112.5 105.7 363.3
08/05 06:00 9.4 94 8.5 8.5 17 24 1032.6 0 19.6 27.8 42.6 111.5 104.4 358.8
08/05 05:50 9.4 94 8.5 8.5 19 20 1032.6 0 19.6 27.8 42.6 111.5 104.4 358.8
08/05 05:40 9.5 93 8.47 8.4 17 20 1032.7 0 19.5 27.7 42.4 111.0 103.9 356.9
08/05 05:30 9.6 92 8.43 8.4 19 30 1032.7 0 19.4 27.6 42.2 110.4 103.2 354.4
08/05 05:20 9.7 92 8.48 8.5 17 20 1032.6 0 19.5 27.7 42.3 110.8 103.7 356.4
08/05 05:10 9.8 91 8.45 8.4 17 22 1032.7 0 19.4 27.6 42.1 110.4 103.2 354.5
08/05 05:00 10 91 8.55 8.6 19 24 1032.7 0 19.6 27.7 42.5 111.2 104.3 358.5
08/05 04:50 10 90 8.46 8.4 20 26 1032.5 0 19.5 27.5 42.1 110.2 103.1 354.0
08/05 04:40 10.1 90 8.51 8.5 20 24 1032.4 0 19.6 27.6 42.2 110.6 103.6 356.0
08/05 04:30 10.2 89 8.47 8.5 19 26 1032.3 0 19.5 27.5 42.0 110.0 102.9 353.6
08/05 04:20 10.3 89 8.53 8.6 17 20 1032.3 0 19.6 27.6 42.2 110.5 103.6 356.0
08/05 04:10 10.5 88 8.54 8.6 19 20 1032.2 0 19.6 27.5 42.1 110.3 103.5 355.6
08/05 04:00 10.6 87 8.49 8.5 20 28 1032.2 0 19.5 27.4 41.9 109.6 102.6 352.7
08/05 03:50 10.7 87 8.55 8.6 19 22 1032.1 0 19.6 27.5 42.1 110.2 103.3 355.1
08/05 03:40 10.7 86 8.45 8.5 15 19 1032.1 0 19.4 27.3 41.6 109.0 101.9 350.3
08/05 03:30 10.6 86 8.4 8.4 13 20 1032.2 0 19.3 27.2 41.5 108.6 101.4 348.3
08/05 03:20 10.6 86 8.4 8.4 13 15 1032.2 0 19.3 27.2 41.5 108.6 101.4 348.3
08/05 03:10 10.8 85 8.4 8.4 15 19 1032.3 0 19.3 27.2 41.4 108.3 101.1 347.4
08/05 03:00 10.8 85 8.4 8.4 13 20 1032.3 0 19.3 27.2 41.4 108.3 101.1 347.4
08/05 02:50 10.9 84 8.36 8.3 13 19 1032.4 0 19.2 27.1 41.2 107.8 100.5 345.1
08/05 02:40 10.9 84 8.36 8.3 15 19 1032.4 0 19.2 27.1 41.2 107.8 100.5 345.1
08/05 02:30 11 84 8.41 8.4 13 20 1032.4 0 19.3 27.1 41.3 108.2 101.0 347.1
08/05 02:20 11 84 8.41 8.4 13 15 1032.4 0 19.3 27.1 41.3 108.2 101.0 347.1
08/05 02:10 11 84 8.41 8.4 11 13 1032.5 0 19.3 27.2 41.3 108.2 101.0 347.1
08/05 02:00 11.1 84 8.46 8.5 11 15 1032.4 0 19.4 27.2 41.5 108.6 101.6 349.0
08/05 01:50 11.2 84 8.52 8.6 13 15 1032.4 0 19.5 27.3 41.7 109.1 102.3 351.5
08/05 01:40 11.3 84 8.57 8.7 9 11 1032.5 0 19.6 27.3 41.8 109.6 102.8 353.5
08/05 01:30 11.5 84 8.68 8.9 11 17 1032.4 0 19.9 27.5 42.2 110.5 104.1 357.9
08/05 01:20 11.5 85 8.78 9.1 11 15 1032.4 0 20.1 27.6 42.6 111.6 105.5 362.7
08/05 01:10 11.4 86 8.83 9.1 11 13 1032.4 0 20.2 27.7 42.9 112.4 106.3 365.6
08/05 01:00 11.2 87 8.82 9.1 9 15 1032.5 0 20.2 27.8 43.0 112.5 106.5 366.1
08/05 00:50 11.2 87 8.82 9.1 11 11 1032.4 0 20.2 27.8 42.9 112.5 106.5 366.1
08/05 00:40 11.2 87 8.82 9.1 9 13 1032.4 0 20.2 27.8 42.9 112.5 106.5 366.1
08/05 00:30 11.1 88 8.87 9.2 11 17 1032.4 0 20.3 27.9 43.2 113.2 107.3 369.0
08/05 00:20 11.1 88 8.87 9.2 11 11 1032.4 0 20.3 27.9 43.2 113.2 107.3 369.0
08/05 00:10 11.1 88 8.87 9.2 11 13 1032.4 0 20.3 27.9 43.2 113.2 107.3 369.0
08/05 00:00 11.1 87 8.76 9 11 13 1032.5 0 20.0 27.7 42.8 112.0 105.8 363.7
07/05 23:50 11.2 87 8.82 9.1 11 13 1032.5 0 20.2 27.8 43.0 112.5 106.5 366.1
07/05 23:40 11.3 86 8.77 9 11 13 1032.5 0 20.1 27.7 42.7 111.8 105.6 363.2
07/05 23:30 11.3 86 8.77 9 11 17 1032.5 0 20.1 27.7 42.7 111.8 105.6 363.2
07/05 23:20 11.3 86 8.77 9 9 9 1032.5 0 20.1 27.7 42.7 111.8 105.6 363.2
07/05 23:10 11.2 85 8.62 8.8 9 11 1032.6 0 19.7 27.5 42.1 110.3 103.7 356.4
07/05 23:00 11.2 84 8.52 8.6 11 17 1032.6 0 19.5 27.3 41.7 109.2 102.3 351.5
07/05 22:50 11.2 83 8.41 8.4 9 11 1032.6 0 19.3 27.1 41.2 107.9 100.8 346.2
07/05 22:40 11.3 81 8.26 8.2 13 17 1032.5 0 19.0 26.8 40.5 106.1 98.6 338.6
07/05 22:30 11.4 80 8.21 8.1 13 19 1032.5 0 18.9 26.7 40.3 105.4 97.8 335.7
07/05 22:20 11.5 78 8.06 7.8 13 15 1032.5 0 18.5 26.4 39.6 103.6 95.6 328.2
07/05 22:10 11.6 76 7.9 7.5 13 17 1032.4 0 18.2 26.1 38.9 101.8 93.3 320.2
07/05 22:00 11.9 75 7.94 7.6 13 17 1032.5 0 18.3 26.1 38.9 101.8 93.5 320.9
07/05 21:50 12.3 73 7.93 7.6 15 17 1032.5 0 18.2 26.0 38.7 101.2 92.9 318.8
07/05 21:40 12.5 72 7.92 7.6 13 15 1032.4 0 18.2 25.9 38.6 100.8 92.5 317.5
07/05 21:30 12.5 70 7.7 7.2 13 19 1032.4 0 17.7 25.5 37.7 98.5 89.6 307.3
07/05 21:20 12.7 69 7.68 7.2 11 13 1032.2 0 17.7 25.4 37.5 98.0 89.1 305.5
07/05 21:10 12.8 68 7.62 7 15 19 1032.2 0 17.5 25.3 37.2 97.2 88.2 302.4
07/05 21:00 13 67 7.6 7 13 19 1032.1 0 17.5 25.2 37.0 96.7 87.7 300.7
07/05 20:50 13.1 67 7.65 7.1 13 17 1032 0 17.6 25.3 37.2 97.1 88.2 302.6
07/05 20:40 13.3 66 7.63 7.1 15 19 1031.9 0 17.5 25.2 37.0 96.7 87.7 300.9
07/05 20:30 13.5 65 7.6 7.1 13 19 1031.9 0 17.5 25.1 36.8 96.1 87.1 298.8
07/05 20:20 13.7 65 7.7 7.2 13 15 1031.9 0 17.7 25.2 37.1 96.9 88.2 302.5
07/05 20:10 13.7 65 7.7 7.2 15 17 1031.9 0 17.7 25.2 37.1 96.9 88.2 302.5
07/05 20:00 13.8 64 7.63 7.1 15 24 1031.9 0 17.5 25.0 36.8 96.1 87.2 299.0
07/05 19:50 13.9 64 7.67 7.2 11 15 1032 0 17.6 25.1 36.9 96.4 87.6 300.4
07/05 19:40 13.9 64 7.67 7.2 15 17 1032 0 17.6 25.1 36.9 96.4 87.6 300.4
07/05 19:30 14 64 7.72 7.3 13 22 1032 0 17.7 25.1 37.0 96.8 88.1 302.3
07/05 19:20 14.2 63 7.69 7.3 15 20 1032 0 17.6 25.0 36.8 96.2 87.5 300.2
07/05 19:10 14.4 62 7.66 7.2 17 22 1031.9 0 17.5 24.9 36.6 95.7 86.9 298.1
07/05 19:00 14.4 62 7.66 7.2 15 20 1031.8 0 17.5 24.9 36.6 95.7 86.9 298.1
07/05 18:50 14.4 62 7.66 7.2 11 19 1031.9 0 17.5 24.9 36.6 95.7 86.9 298.1
07/05 18:40 14.5 62 7.71 7.3 13 17 1031.8 0 17.6 25.0 36.8 96.1 87.4 299.9
07/05 18:30 14.8 60 7.6 7.1 13 20 1031.8 0 17.4 24.7 36.2 94.6 85.7 293.9
07/05 18:20 15.1 59 7.61 7.2 11 15 1031.7 0 17.4 24.6 36.1 94.3 85.5 293.2
07/05 18:10 15.5 58 7.67 7.3 15 17 1031.6 0 17.5 24.6 36.1 94.4 85.8 294.4
07/05 18:00 15.6 57 7.58 7.1 15 24 1031.5 0 17.3 24.5 35.7 93.4 84.6 290.0
07/05 17:50 15.9 56 7.58 7.1 15 17 1031.5 0 17.3 24.4 35.6 93.0 84.2 288.9
07/05 17:40 16 56 7.63 7.2 15 20 1031.4 0 17.4 24.4 35.8 93.4 84.7 290.7
07/05 17:30 16.5 54 7.58 7.2 15 20 1031.2 0 17.3 24.2 35.3 92.3 83.6 286.7
07/05 17:20 16.9 52 7.48 7 17 19 1031.2 0 17.1 23.9 34.8 90.9 81.9 281.0
07/05 17:10 17.3 51 7.51 7.1 15 24 1031.1 0 17.1 23.9 34.7 90.7 81.9 280.8
07/05 17:00 17.6 50 7.5 7.1 19 28 1030.9 0 17.1 23.8 34.6 90.2 81.4 279.3
07/05 16:50 17.9 49 7.48 7 20 26 1031 0 17.0 23.7 34.4 89.7 80.9 277.4

Last Refresh: 08-May-2026 11:04:26

Bureau of Meteorology